createdAt,value
2019-03-06T00:00:33.566Z,1005.31
2019-03-06T00:01:35.608Z,1005.33
2019-03-06T00:02:33.403Z,1005.32
2019-03-06T00:03:33.413Z,1005.27
2019-03-06T00:04:33.382Z,1005.30
2019-03-06T00:05:33.389Z,1005.27
2019-03-06T00:06:33.371Z,1005.25
2019-03-06T00:07:33.349Z,1005.27
2019-03-06T00:08:33.355Z,1005.30
2019-03-06T00:09:33.412Z,1005.26
2019-03-06T00:10:33.316Z,1005.24
2019-03-06T00:11:33.303Z,1005.19
2019-03-06T00:12:40.355Z,1005.16
2019-03-06T00:13:33.306Z,1005.17
2019-03-06T00:14:33.277Z,1005.14
2019-03-06T00:15:33.281Z,1005.14
2019-03-06T00:16:33.256Z,1005.14
2019-03-06T00:17:33.247Z,1005.10
2019-03-06T00:18:33.253Z,1005.08
2019-03-06T00:19:33.220Z,1005.09
2019-03-06T00:20:33.782Z,1005.05
2019-03-06T00:21:33.205Z,1005.04
2019-03-06T00:22:33.190Z,1005.04
2019-03-06T00:23:33.223Z,1005.06
2019-03-06T00:24:33.174Z,1005.03
2019-03-06T00:25:33.159Z,1005.01
2019-03-06T00:26:33.149Z,1005.02
2019-03-06T00:27:33.138Z,1005.00
2019-03-06T00:28:33.129Z,1004.99
2019-03-06T00:29:33.139Z,1004.99
2019-03-06T00:30:33.110Z,1005.03
2019-03-06T00:31:33.095Z,1004.93
2019-03-06T00:32:33.084Z,1004.96
2019-03-06T00:33:33.152Z,1004.97
2019-03-06T00:34:33.081Z,1004.97
2019-03-06T00:35:33.060Z,1004.95
2019-03-06T00:36:33.050Z,1004.91
2019-03-06T00:37:33.032Z,1004.93
2019-03-06T00:38:33.022Z,1004.97
2019-03-06T00:39:33.046Z,1004.92
2019-03-06T00:40:33.003Z,1004.93
2019-03-06T00:41:32.994Z,1004.95
2019-03-06T00:42:33.023Z,1004.84
2019-03-06T00:43:32.972Z,1004.83
2019-03-06T00:44:32.960Z,1004.87
2019-03-06T00:45:32.969Z,1004.85
2019-03-06T00:46:32.943Z,1004.82
2019-03-06T00:47:32.929Z,1004.84
2019-03-06T00:48:32.936Z,1004.86
2019-03-06T00:49:32.906Z,1004.80
2019-03-06T00:50:32.916Z,1004.82
2019-03-06T00:51:32.914Z,1004.76
2019-03-06T00:52:32.900Z,1004.79
2019-03-06T00:53:32.863Z,1004.73
2019-03-06T00:54:32.855Z,1004.76
2019-03-06T00:55:32.922Z,1004.73
2019-03-06T00:56:32.833Z,1004.75
2019-03-06T00:57:32.833Z,1004.76
2019-03-06T00:58:32.814Z,1004.72
2019-03-06T00:59:32.801Z,1004.73
2019-03-06T01:00:32.876Z,1004.73
2019-03-06T01:01:32.794Z,1004.73
2019-03-06T01:02:32.769Z,1004.72
2019-03-06T01:03:32.760Z,1004.75
2019-03-06T01:04:33.323Z,1004.74
2019-03-06T01:05:32.857Z,1004.69
2019-03-06T01:06:32.731Z,1004.73
2019-03-06T01:07:32.720Z,1004.68
2019-03-06T01:08:32.726Z,1004.72
2019-03-06T01:09:32.697Z,1004.70
2019-03-06T01:10:32.703Z,1004.66
2019-03-06T01:11:32.716Z,1004.71
2019-03-06T01:12:32.667Z,1004.71
2019-03-06T01:13:32.716Z,1004.62
2019-03-06T01:14:32.648Z,1004.64
2019-03-06T01:15:32.687Z,1004.68
2019-03-06T01:16:32.630Z,1004.69
2019-03-06T01:17:32.620Z,1004.68
2019-03-06T01:18:32.605Z,1004.66
2019-03-06T01:19:32.624Z,1004.65
2019-03-06T01:20:32.628Z,1004.66
2019-03-06T01:21:32.616Z,1004.64
2019-03-06T01:22:32.564Z,1004.65
2019-03-06T01:23:33.327Z,1004.65
2019-03-06T01:24:32.546Z,1004.66
2019-03-06T01:25:32.534Z,1004.62
2019-03-06T01:26:32.582Z,1004.64
2019-03-06T01:27:32.512Z,1004.60
2019-03-06T01:28:32.502Z,1004.60
2019-03-06T01:29:32.540Z,1004.58
2019-03-06T01:30:32.481Z,1004.57
2019-03-06T01:31:32.488Z,1004.62
2019-03-06T01:32:32.472Z,1004.61
2019-03-06T01:33:32.453Z,1004.61
2019-03-06T01:34:32.452Z,1004.52
2019-03-06T01:35:32.436Z,1004.52
2019-03-06T01:36:32.530Z,1004.41
2019-03-06T01:37:32.406Z,1004.50
2019-03-06T01:38:32.394Z,1004.47
2019-03-06T01:39:32.445Z,1004.47
2019-03-06T01:40:32.372Z,1004.48
2019-03-06T01:41:32.368Z,1004.43
2019-03-06T01:42:32.374Z,1004.46
2019-03-06T01:43:32.343Z,1004.50
2019-03-06T01:44:32.330Z,1004.47
2019-03-06T01:45:32.387Z,1004.45
2019-03-06T01:46:32.312Z,1004.42
2019-03-06T01:47:32.343Z,1004.48
2019-03-06T01:48:32.319Z,1004.48
2019-03-06T01:49:32.279Z,1004.46
2019-03-06T01:50:32.273Z,1004.40
2019-03-06T01:51:32.260Z,1004.42
2019-03-06T01:52:32.277Z,1004.40
2019-03-06T01:53:32.238Z,1004.36
2019-03-06T01:54:32.226Z,1004.36
2019-03-06T01:55:32.214Z,1004.29
2019-03-06T01:56:32.206Z,1004.34
2019-03-06T01:57:32.404Z,1004.33
2019-03-06T01:58:32.198Z,1004.26
2019-03-06T01:59:32.183Z,1004.28
2019-03-06T02:00:32.162Z,1004.26
2019-03-06T02:01:32.176Z,1004.30
2019-03-06T02:02:32.145Z,1004.29
2019-03-06T02:03:32.155Z,1004.25
2019-03-06T02:04:32.123Z,1004.18
2019-03-06T02:05:32.123Z,1004.19
2019-03-06T02:06:32.108Z,1004.25
2019-03-06T02:07:32.112Z,1004.19
2019-03-06T02:08:32.112Z,1004.14
2019-03-06T02:09:32.105Z,1004.15
2019-03-06T02:10:32.099Z,1004.07
2019-03-06T02:11:32.049Z,1004.09
2019-03-06T02:12:32.069Z,1004.04
2019-03-06T02:13:32.064Z,1003.99
2019-03-06T02:14:32.019Z,1004.01
2019-03-06T02:15:32.017Z,1004.02
2019-03-06T02:16:32.028Z,1003.95
2019-03-06T02:17:31.993Z,1003.91
2019-03-06T02:18:31.996Z,1003.90
2019-03-06T02:19:31.962Z,1003.84
2019-03-06T02:20:31.951Z,1003.90
2019-03-06T02:21:31.941Z,1003.88
2019-03-06T02:22:31.934Z,1003.90
2019-03-06T02:23:31.944Z,1003.84
2019-03-06T02:24:31.915Z,1003.84
2019-03-06T02:25:31.902Z,1003.83
2019-03-06T02:26:31.890Z,1003.79
2019-03-06T02:27:31.887Z,1003.81
2019-03-06T02:28:31.887Z,1003.83
2019-03-06T02:29:31.857Z,1003.79
2019-03-06T02:30:31.848Z,1003.76
2019-03-06T02:31:31.838Z,1003.78
2019-03-06T02:32:31.861Z,1003.79
2019-03-06T02:33:31.839Z,1003.74
2019-03-06T02:34:31.805Z,1003.77
2019-03-06T02:35:31.799Z,1003.72
2019-03-06T02:36:31.788Z,1003.77
2019-03-06T02:37:31.822Z,1003.77
2019-03-06T02:38:31.793Z,1003.77
2019-03-06T02:39:31.790Z,1003.72
2019-03-06T02:40:31.746Z,1003.75
2019-03-06T02:41:31.750Z,1003.64
2019-03-06T02:42:31.725Z,1003.72
2019-03-06T02:43:31.726Z,1003.66
2019-03-06T02:44:31.753Z,1003.67
2019-03-06T02:45:31.696Z,1003.69
2019-03-06T02:46:31.683Z,1003.66
2019-03-06T02:47:31.685Z,1003.70
2019-03-06T02:48:31.662Z,1003.69
2019-03-06T02:49:31.688Z,1003.61
2019-03-06T02:50:31.637Z,1003.54
2019-03-06T02:51:31.636Z,1003.51
2019-03-06T02:52:31.650Z,1003.52
2019-03-06T02:53:31.625Z,1003.50
2019-03-06T02:54:31.663Z,1003.47
2019-03-06T02:55:31.597Z,1003.48
2019-03-06T02:56:31.576Z,1003.41
2019-03-06T02:57:31.567Z,1003.48
2019-03-06T02:58:31.558Z,1003.36
2019-03-06T02:59:31.569Z,1003.36
2019-03-06T03:00:31.538Z,1003.43
2019-03-06T03:01:31.538Z,1003.36
2019-03-06T03:02:31.515Z,1003.28
2019-03-06T03:03:31.505Z,1003.30
2019-03-06T03:04:31.512Z,1003.15
2019-03-06T03:05:31.483Z,1003.14
2019-03-06T03:06:31.504Z,1003.07
2019-03-06T03:07:31.474Z,1002.99
2019-03-06T03:08:31.449Z,1002.99
2019-03-06T03:09:31.467Z,1002.99
2019-03-06T03:10:31.440Z,1002.99
2019-03-06T03:11:31.426Z,1003.01
2019-03-06T03:12:31.412Z,1002.99
2019-03-06T03:13:31.402Z,1002.99
2019-03-06T03:14:31.436Z,1002.96
2019-03-06T03:15:31.376Z,1002.93
2019-03-06T03:16:31.369Z,1002.98
2019-03-06T03:17:31.357Z,1002.91
2019-03-06T03:18:31.403Z,1002.93
2019-03-06T03:19:31.353Z,1002.93
2019-03-06T03:20:31.331Z,1002.96
2019-03-06T03:21:31.315Z,1002.92
2019-03-06T03:22:31.307Z,1002.97
2019-03-06T03:23:31.319Z,1002.92
2019-03-06T03:24:31.308Z,1002.99
2019-03-06T03:25:31.277Z,1002.99
2019-03-06T03:26:31.265Z,1002.98
2019-03-06T03:27:31.313Z,1003.01
2019-03-06T03:28:31.240Z,1003.07
2019-03-06T03:29:31.278Z,1003.08
2019-03-06T03:30:31.231Z,1003.12
2019-03-06T03:31:31.233Z,1003.08
2019-03-06T03:32:31.206Z,1003.09
2019-03-06T03:33:31.189Z,1003.04
2019-03-06T03:34:31.185Z,1003.05
2019-03-06T03:35:31.198Z,1003.00
2019-03-06T03:36:31.158Z,1003.00
2019-03-06T03:37:31.169Z,1002.99
2019-03-06T03:38:31.143Z,1002.99
2019-03-06T03:39:31.163Z,1002.89
2019-03-06T03:40:31.143Z,1002.91
2019-03-06T03:41:31.106Z,1002.88
2019-03-06T03:42:31.103Z,1002.83
2019-03-06T03:43:31.093Z,1002.87
2019-03-06T03:44:31.077Z,1002.86
2019-03-06T03:45:31.087Z,1002.81
2019-03-06T03:46:31.055Z,1002.77
2019-03-06T03:47:31.055Z,1002.78
2019-03-06T03:48:31.032Z,1002.75
2019-03-06T03:49:31.042Z,1002.77
2019-03-06T03:50:31.045Z,1002.65
2019-03-06T03:51:30.998Z,1002.63
2019-03-06T03:52:30.996Z,1002.59
2019-03-06T03:53:30.985Z,1002.58
2019-03-06T03:54:30.990Z,1002.50
2019-03-06T03:55:31.005Z,1002.53
2019-03-06T03:56:30.988Z,1002.44
2019-03-06T03:57:30.944Z,1002.49
2019-03-06T03:58:30.954Z,1002.47
2019-03-06T03:59:30.921Z,1002.39
2019-03-06T04:00:30.925Z,1002.42
2019-03-06T04:01:30.915Z,1002.34
2019-03-06T04:02:30.888Z,1002.30
2019-03-06T04:03:30.895Z,1002.30
2019-03-06T04:04:30.866Z,1002.33
2019-03-06T04:05:30.855Z,1002.28
2019-03-06T04:06:30.869Z,1002.37
2019-03-06T04:07:30.838Z,1002.41
2019-03-06T04:08:30.826Z,1002.37
2019-03-06T04:09:30.820Z,1002.38
2019-03-06T04:10:30.808Z,1002.45
2019-03-06T04:11:31.415Z,1002.47
2019-03-06T04:12:30.781Z,1002.49
2019-03-06T04:13:30.777Z,1002.44
2019-03-06T04:14:30.791Z,1002.47
2019-03-06T04:15:30.778Z,1002.48
2019-03-06T04:16:30.747Z,1002.46
2019-03-06T04:17:30.753Z,1002.46
2019-03-06T04:18:30.726Z,1002.38
2019-03-06T04:19:30.736Z,1002.38
2019-03-06T04:20:30.727Z,1002.35
2019-03-06T04:21:30.707Z,1002.32
2019-03-06T04:22:30.693Z,1002.31
2019-03-06T04:23:30.673Z,1002.36
2019-03-06T04:24:30.655Z,1002.36
2019-03-06T04:25:30.657Z,1002.42
2019-03-06T04:26:30.655Z,1002.42
2019-03-06T04:27:30.655Z,1002.45
2019-03-06T04:28:30.617Z,1002.46
2019-03-06T04:29:30.647Z,1002.46
2019-03-06T04:30:30.593Z,1002.45
2019-03-06T04:31:30.586Z,1002.50
2019-03-06T04:32:30.593Z,1002.43
2019-03-06T04:33:30.571Z,1002.47
2019-03-06T04:34:30.557Z,1002.40
2019-03-06T04:35:30.549Z,1002.39
2019-03-06T04:36:30.529Z,1002.36
2019-03-06T04:37:30.541Z,1002.28
2019-03-06T04:38:30.523Z,1002.31
2019-03-06T04:39:30.497Z,1002.28
2019-03-06T04:40:30.492Z,1002.30
2019-03-06T04:41:30.476Z,1002.29
2019-03-06T04:42:30.499Z,1002.26
2019-03-06T04:43:30.479Z,1002.21
2019-03-06T04:44:30.442Z,1002.21
2019-03-06T04:45:30.464Z,1002.21
2019-03-06T04:46:30.423Z,1002.25
2019-03-06T04:47:30.438Z,1002.22
2019-03-06T04:48:30.405Z,1002.22
2019-03-06T04:49:30.397Z,1002.16
2019-03-06T04:50:30.412Z,1002.18
2019-03-06T04:51:30.386Z,1002.10
2019-03-06T04:52:30.357Z,1002.09
2019-03-06T04:53:30.369Z,1002.02
2019-03-06T04:54:30.343Z,1002.01
2019-03-06T04:55:30.342Z,1001.95
2019-03-06T04:56:30.332Z,1001.98
2019-03-06T04:57:30.305Z,1002.01
2019-03-06T04:58:30.320Z,1001.98
2019-03-06T04:59:30.285Z,1001.94
2019-03-06T05:00:30.283Z,1001.95
2019-03-06T05:01:30.270Z,1001.99
2019-03-06T05:02:30.263Z,1001.94
2019-03-06T05:03:30.271Z,1001.98
2019-03-06T05:04:30.283Z,1001.99
2019-03-06T05:05:30.225Z,1002.04
2019-03-06T05:06:30.217Z,1001.98
2019-03-06T05:07:30.209Z,1002.04
2019-03-06T05:08:30.211Z,1002.00
2019-03-06T05:09:30.183Z,1002.08
2019-03-06T05:10:30.171Z,1002.12
2019-03-06T05:11:30.159Z,1002.05
2019-03-06T05:12:30.156Z,1002.05
2019-03-06T05:13:30.164Z,1002.01
2019-03-06T05:14:30.160Z,1001.99
2019-03-06T05:15:30.129Z,1002.03
2019-03-06T05:16:30.107Z,1001.97
2019-03-06T05:17:30.112Z,1001.95
2019-03-06T05:18:30.120Z,1001.93
2019-03-06T05:19:30.103Z,1001.94
2019-03-06T05:20:30.076Z,1001.94
2019-03-06T05:21:30.065Z,1001.91
2019-03-06T05:22:30.051Z,1001.96
2019-03-06T05:23:30.082Z,1001.92
2019-03-06T05:24:30.028Z,1001.90
2019-03-06T05:25:30.014Z,1001.84
2019-03-06T05:26:30.006Z,1001.78
2019-03-06T05:27:29.994Z,1001.76
2019-03-06T05:28:29.985Z,1001.72
2019-03-06T05:29:29.995Z,1001.65
2019-03-06T05:30:29.968Z,1001.59
2019-03-06T05:31:29.952Z,1001.57
2019-03-06T05:32:29.948Z,1001.59
2019-03-06T05:33:29.930Z,1001.54
2019-03-06T05:34:29.943Z,1001.51
2019-03-06T05:35:29.910Z,1001.47
2019-03-06T05:36:29.902Z,1001.47
2019-03-06T05:37:29.890Z,1001.42
2019-03-06T05:38:29.878Z,1001.42
2019-03-06T05:39:29.893Z,1001.40
2019-03-06T05:40:29.854Z,1001.37
2019-03-06T05:41:29.847Z,1001.32
2019-03-06T05:42:29.835Z,1001.27
2019-03-06T05:43:29.836Z,1001.31
2019-03-06T05:44:29.836Z,1001.31
2019-03-06T05:45:29.806Z,1001.29
2019-03-06T05:46:29.798Z,1001.24
2019-03-06T05:47:29.781Z,1001.28
2019-03-06T05:48:29.772Z,1001.18
2019-03-06T05:49:29.790Z,1001.23
2019-03-06T05:50:29.762Z,1001.25
2019-03-06T05:51:29.745Z,1001.21
2019-03-06T05:52:29.735Z,1001.20
2019-03-06T05:53:29.729Z,1001.19
2019-03-06T05:54:29.714Z,1001.19
2019-03-06T05:55:29.718Z,1001.15
2019-03-06T05:56:29.692Z,1001.18
2019-03-06T05:57:29.681Z,1001.16
2019-03-06T05:58:29.673Z,1001.14
2019-03-06T05:59:29.683Z,1001.18
2019-03-06T06:00:29.680Z,1001.13
2019-03-06T06:01:29.636Z,1001.10
2019-03-06T06:02:29.629Z,1001.06
2019-03-06T06:03:29.618Z,1001.08
2019-03-06T06:04:29.609Z,1001.01
2019-03-06T06:05:29.638Z,1001.01
2019-03-06T06:06:29.591Z,1000.99
2019-03-06T06:07:29.577Z,1000.96
2019-03-06T06:08:29.567Z,1001.00
2019-03-06T06:09:29.558Z,1000.98
2019-03-06T06:10:29.563Z,1000.96
2019-03-06T06:11:29.534Z,1001.00
2019-03-06T06:12:37.065Z,1000.95
2019-03-06T06:13:31.044Z,1000.96
2019-03-06T06:14:29.506Z,1000.94
2019-03-06T06:15:29.510Z,1000.93
2019-03-06T06:16:29.480Z,1000.91
2019-03-06T06:17:29.474Z,1000.94
2019-03-06T06:18:29.460Z,1000.84
2019-03-06T06:19:29.459Z,1000.93
2019-03-06T06:20:29.462Z,1000.90
2019-03-06T06:21:29.450Z,1000.87
2019-03-06T06:22:29.417Z,1000.83
2019-03-06T06:23:29.425Z,1000.86
2019-03-06T06:24:29.403Z,1000.86
2019-03-06T06:25:29.410Z,1000.87
2019-03-06T06:26:29.378Z,1000.80
2019-03-06T06:27:29.367Z,1000.84
2019-03-06T06:28:29.372Z,1000.81
2019-03-06T06:29:29.352Z,1000.83
2019-03-06T06:30:29.339Z,1000.80
2019-03-06T06:31:29.352Z,1000.75
2019-03-06T06:32:29.322Z,1000.71
2019-03-06T06:33:29.310Z,1000.70
2019-03-06T06:34:29.305Z,1000.69
2019-03-06T06:35:29.311Z,1000.70
2019-03-06T06:36:29.302Z,1000.64
2019-03-06T06:37:29.267Z,1000.69
2019-03-06T06:38:29.257Z,1000.69
2019-03-06T06:39:29.880Z,1000.71
2019-03-06T06:40:29.230Z,1000.71
2019-03-06T06:41:29.245Z,1000.68
2019-03-06T06:42:29.215Z,1000.63
2019-03-06T06:43:29.210Z,1000.60
2019-03-06T06:44:29.195Z,1000.59
2019-03-06T06:45:29.175Z,1000.58
2019-03-06T06:46:29.219Z,1000.52
2019-03-06T06:47:29.162Z,1000.50
2019-03-06T06:48:29.150Z,1000.53
2019-03-06T06:49:29.145Z,1000.46
2019-03-06T06:50:29.127Z,1000.41
2019-03-06T06:51:29.140Z,1000.42
2019-03-06T06:52:29.105Z,1000.38
2019-03-06T06:53:29.117Z,1000.45
2019-03-06T06:54:29.087Z,1000.39
2019-03-06T06:55:29.085Z,1000.40
2019-03-06T06:56:29.085Z,1000.45
2019-03-06T06:57:29.055Z,1000.36
2019-03-06T06:58:31.571Z,1000.33
2019-03-06T06:59:29.034Z,1000.30
2019-03-06T07:00:29.021Z,1000.26
2019-03-06T07:01:29.032Z,1000.21
2019-03-06T07:02:29.013Z,1000.16
2019-03-06T07:03:28.987Z,1000.20
2019-03-06T07:04:28.990Z,1000.14
2019-03-06T07:05:28.968Z,1000.17
2019-03-06T07:06:29.000Z,1000.16
2019-03-06T07:07:28.964Z,1000.12
2019-03-06T07:08:28.938Z,1000.13
2019-03-06T07:09:28.926Z,1000.14
2019-03-06T07:10:28.918Z,1000.11
2019-03-06T07:11:28.903Z,1000.05
2019-03-06T07:12:28.921Z,1000.04
2019-03-06T07:13:28.887Z,1000.04
2019-03-06T07:14:28.885Z,999.99
2019-03-06T07:15:28.861Z,999.99
2019-03-06T07:16:28.854Z,999.97
2019-03-06T07:17:28.861Z,999.92
2019-03-06T07:18:28.836Z,999.89
2019-03-06T07:19:28.823Z,999.83
2019-03-06T07:20:28.810Z,999.79
2019-03-06T07:21:28.804Z,999.76
2019-03-06T07:22:28.812Z,999.81
2019-03-06T07:23:28.788Z,999.79
2019-03-06T07:24:28.767Z,999.82
2019-03-06T07:25:28.758Z,999.82
2019-03-06T07:26:28.750Z,999.81
2019-03-06T07:27:28.761Z,999.78
2019-03-06T07:28:28.727Z,999.72
2019-03-06T07:29:28.718Z,999.80
2019-03-06T07:30:28.705Z,999.77
2019-03-06T07:31:28.703Z,999.78
2019-03-06T07:32:28.690Z,999.83
2019-03-06T07:33:28.698Z,999.82
2019-03-06T07:34:28.672Z,999.82
2019-03-06T07:35:28.654Z,999.84
2019-03-06T07:36:28.643Z,999.81
2019-03-06T07:37:29.031Z,999.80
2019-03-06T07:38:28.648Z,999.80
2019-03-06T07:39:28.612Z,999.78
2019-03-06T07:40:28.601Z,999.75
2019-03-06T07:41:28.610Z,999.74
2019-03-06T07:42:28.582Z,999.81
2019-03-06T07:43:28.620Z,999.82
2019-03-06T07:44:30.430Z,999.76
2019-03-06T07:45:28.554Z,999.74
2019-03-06T07:46:28.540Z,999.77
2019-03-06T07:47:28.529Z,999.67
2019-03-06T07:48:28.521Z,999.64
2019-03-06T07:49:28.543Z,999.59
2019-03-06T07:50:28.510Z,999.60
2019-03-06T07:51:28.485Z,999.65
2019-03-06T07:52:28.480Z,999.60
2019-03-06T07:53:28.466Z,999.61
2019-03-06T07:54:29.458Z,999.60
2019-03-06T07:55:28.442Z,999.65
2019-03-06T07:56:28.442Z,999.58
2019-03-06T07:57:28.428Z,999.58
2019-03-06T07:58:28.411Z,999.62
2019-03-06T07:59:28.472Z,999.64
2019-03-06T08:00:28.404Z,999.60
2019-03-06T08:01:28.382Z,999.62
2019-03-06T08:02:28.367Z,999.65
2019-03-06T08:03:28.361Z,999.65
2019-03-06T08:04:28.370Z,999.63
2019-03-06T08:05:28.342Z,999.63
2019-03-06T08:06:28.332Z,999.59
2019-03-06T08:07:28.327Z,999.57
2019-03-06T08:08:28.306Z,999.52
2019-03-06T08:09:28.312Z,999.50
2019-03-06T08:10:28.296Z,999.43
2019-03-06T08:11:28.276Z,999.41
2019-03-06T08:12:28.268Z,999.38
2019-03-06T08:13:28.253Z,999.38
2019-03-06T08:14:28.269Z,999.31
2019-03-06T08:15:28.269Z,999.27
2019-03-06T08:16:28.226Z,999.31
2019-03-06T08:17:28.222Z,999.30
2019-03-06T08:18:28.220Z,999.25
2019-03-06T08:19:28.191Z,999.28
2019-03-06T08:20:28.206Z,999.26
2019-03-06T08:21:28.180Z,999.22
2019-03-06T08:22:28.165Z,999.24
2019-03-06T08:23:28.154Z,999.27
2019-03-06T08:24:28.143Z,999.25
2019-03-06T08:25:28.150Z,999.24
2019-03-06T08:26:28.120Z,999.21
2019-03-06T08:27:28.109Z,999.18
2019-03-06T08:28:28.100Z,999.25
2019-03-06T08:29:28.095Z,999.20
2019-03-06T08:30:28.104Z,999.17
2019-03-06T08:31:28.069Z,999.25
2019-03-06T08:32:28.058Z,999.20
2019-03-06T08:33:28.050Z,999.21
2019-03-06T08:34:28.037Z,999.25
2019-03-06T08:35:28.046Z,999.22
2019-03-06T08:36:28.033Z,999.17
2019-03-06T08:37:28.004Z,999.14
2019-03-06T08:38:28.000Z,999.07
2019-03-06T08:39:27.983Z,999.04
2019-03-06T08:40:27.972Z,999.01
2019-03-06T08:41:27.984Z,999.03
2019-03-06T08:42:27.955Z,999.05
2019-03-06T08:43:27.946Z,998.99
2019-03-06T08:44:27.930Z,998.95
2019-03-06T08:45:27.926Z,999.01
2019-03-06T08:46:27.934Z,999.00
2019-03-06T08:47:27.923Z,999.00
2019-03-06T08:48:27.888Z,999.01
2019-03-06T08:49:27.881Z,998.88
2019-03-06T08:50:27.869Z,998.94
2019-03-06T08:51:27.882Z,998.94
2019-03-06T08:52:27.847Z,998.86
2019-03-06T08:53:27.839Z,998.80
2019-03-06T08:54:27.838Z,998.85
2019-03-06T08:55:27.813Z,998.74
2019-03-06T08:56:27.847Z,998.76
2019-03-06T08:57:27.798Z,998.68
2019-03-06T08:58:27.787Z,998.70
2019-03-06T08:59:27.777Z,998.65
2019-03-06T09:00:27.765Z,998.65
2019-03-06T09:01:27.776Z,998.63
2019-03-06T09:02:27.742Z,998.63
2019-03-06T09:03:27.776Z,998.65
2019-03-06T09:04:27.774Z,998.58
2019-03-06T09:05:27.736Z,998.60
2019-03-06T09:06:27.713Z,998.56
2019-03-06T09:07:27.706Z,998.54
2019-03-06T09:08:27.682Z,998.44
2019-03-06T09:09:27.668Z,998.42
2019-03-06T09:10:27.659Z,998.44
2019-03-06T09:11:27.650Z,998.37
2019-03-06T09:12:27.656Z,998.41
2019-03-06T09:13:27.629Z,998.34
2019-03-06T09:14:27.616Z,998.35
2019-03-06T09:15:27.604Z,998.31
2019-03-06T09:16:27.605Z,998.27
2019-03-06T09:17:27.606Z,998.21
2019-03-06T09:18:27.575Z,998.20
2019-03-06T09:19:27.587Z,998.17
2019-03-06T09:20:35.405Z,998.07
2019-03-06T09:21:28.544Z,998.10
2019-03-06T09:22:27.557Z,998.09
2019-03-06T09:23:27.524Z,998.11
2019-03-06T09:24:27.512Z,998.07
2019-03-06T09:25:27.500Z,998.01
2019-03-06T09:26:27.492Z,997.98
2019-03-06T09:27:27.502Z,997.91
2019-03-06T09:28:27.465Z,997.89
2019-03-06T09:29:27.459Z,997.90
2019-03-06T09:30:27.447Z,997.90
2019-03-06T09:31:27.439Z,997.89
2019-03-06T09:32:27.448Z,997.90
2019-03-06T09:33:27.425Z,997.86
2019-03-06T09:34:28.279Z,997.83
2019-03-06T09:35:27.402Z,997.83
2019-03-06T09:36:27.381Z,997.79
2019-03-06T09:37:27.411Z,997.80
2019-03-06T09:38:27.364Z,997.82
2019-03-06T09:39:27.351Z,997.81
2019-03-06T09:40:27.340Z,997.80
2019-03-06T09:41:27.333Z,997.86
2019-03-06T09:42:27.325Z,997.80
2019-03-06T09:43:27.330Z,997.87
2019-03-06T09:44:27.303Z,997.88
2019-03-06T09:45:27.286Z,997.85
2019-03-06T09:46:27.279Z,997.91
2019-03-06T09:47:27.266Z,997.95
2019-03-06T09:48:27.293Z,998.00
2019-03-06T09:49:27.248Z,998.04
2019-03-06T09:50:27.244Z,998.14
2019-03-06T09:51:27.221Z,998.07
2019-03-06T09:52:27.208Z,997.97
2019-03-06T09:53:27.245Z,997.91
2019-03-06T09:54:27.194Z,997.97
2019-03-06T09:55:27.192Z,997.99
2019-03-06T09:56:27.167Z,998.04
2019-03-06T09:57:27.157Z,997.98
2019-03-06T09:58:27.215Z,997.92
2019-03-06T09:59:27.137Z,997.87
2019-03-06T10:00:27.131Z,997.84
2019-03-06T10:01:27.120Z,997.80
2019-03-06T10:02:27.105Z,997.83
2019-03-06T10:03:27.489Z,997.83
2019-03-06T10:04:27.089Z,997.76
2019-03-06T10:05:27.074Z,997.77
2019-03-06T10:06:27.070Z,997.70
2019-03-06T10:07:27.056Z,997.74
2019-03-06T10:08:27.061Z,997.78
2019-03-06T10:09:27.039Z,997.79
2019-03-06T10:10:27.018Z,997.81
2019-03-06T10:11:27.012Z,997.81
2019-03-06T10:12:27.003Z,997.75
2019-03-06T10:13:27.038Z,997.78
2019-03-06T10:14:26.978Z,997.83
2019-03-06T10:15:26.973Z,997.71
2019-03-06T10:16:26.957Z,997.69
2019-03-06T10:17:26.951Z,997.65
2019-03-06T10:18:26.982Z,997.68
2019-03-06T10:19:26.952Z,997.61
2019-03-06T10:20:26.918Z,997.63
2019-03-06T10:21:26.907Z,997.62
2019-03-06T10:22:26.901Z,997.71
2019-03-06T10:23:26.886Z,997.71
2019-03-06T10:24:26.894Z,997.69
2019-03-06T10:25:30.333Z,997.65
2019-03-06T10:26:28.912Z,997.68
2019-03-06T10:27:26.839Z,997.60
2019-03-06T10:28:27.975Z,997.60
2019-03-06T10:29:26.941Z,997.53
2019-03-06T10:30:26.821Z,997.55
2019-03-06T10:31:26.799Z,997.53
2019-03-06T10:32:26.794Z,997.52
2019-03-06T10:33:26.777Z,997.55
2019-03-06T10:34:26.793Z,997.43
2019-03-06T10:35:26.763Z,997.50
2019-03-06T10:36:26.745Z,997.45
2019-03-06T10:37:26.742Z,997.46
2019-03-06T10:38:26.727Z,997.51
2019-03-06T10:39:26.735Z,997.51
2019-03-06T10:40:26.704Z,997.54
2019-03-06T10:41:26.693Z,997.56
2019-03-06T10:42:26.694Z,997.61
2019-03-06T10:43:26.673Z,997.63
2019-03-06T10:44:29.941Z,997.59
2019-03-06T10:45:26.667Z,997.49
2019-03-06T10:46:26.665Z,997.51
2019-03-06T10:47:26.639Z,997.42
2019-03-06T10:48:26.614Z,997.46
2019-03-06T10:49:26.612Z,997.40
2019-03-06T10:50:28.006Z,997.43
2019-03-06T10:51:27.587Z,997.48
2019-03-06T10:52:26.577Z,997.48
2019-03-06T10:53:26.568Z,997.46
2019-03-06T10:54:26.571Z,997.43
2019-03-06T10:55:26.585Z,997.31
2019-03-06T10:56:26.536Z,997.35
2019-03-06T10:57:26.523Z,997.33
2019-03-06T10:58:26.511Z,997.34
2019-03-06T10:59:26.507Z,997.27
2019-03-06T11:00:26.509Z,997.28
2019-03-06T11:01:26.484Z,997.23
2019-03-06T11:02:26.471Z,997.31
2019-03-06T11:03:26.476Z,997.29
2019-03-06T11:04:26.447Z,997.23
2019-03-06T11:05:26.460Z,997.27
2019-03-06T11:06:26.432Z,997.28
2019-03-06T11:07:26.415Z,997.29
2019-03-06T11:08:26.406Z,997.30
2019-03-06T11:09:26.399Z,997.28
2019-03-06T11:10:26.829Z,997.29
2019-03-06T11:11:26.400Z,997.25
2019-03-06T11:12:26.364Z,997.25
2019-03-06T11:13:26.357Z,997.31
2019-03-06T11:14:26.347Z,997.23
2019-03-06T11:15:26.336Z,997.23
2019-03-06T11:16:26.338Z,997.16
2019-03-06T11:17:26.315Z,997.19
2019-03-06T11:18:26.312Z,997.17
2019-03-06T11:19:26.290Z,997.15
2019-03-06T11:20:26.297Z,997.11
2019-03-06T11:21:26.336Z,997.11
2019-03-06T11:22:26.263Z,997.11
2019-03-06T11:23:26.252Z,997.02
2019-03-06T11:24:26.234Z,996.99
2019-03-06T11:25:26.291Z,996.98
2019-03-06T11:26:26.247Z,996.93
2019-03-06T11:27:26.222Z,996.86
2019-03-06T11:28:26.189Z,996.79
2019-03-06T11:29:26.210Z,996.78
2019-03-06T11:30:26.201Z,996.80
2019-03-06T11:31:26.160Z,996.77
2019-03-06T11:32:26.158Z,996.73
2019-03-06T11:33:26.137Z,996.73
2019-03-06T11:34:26.135Z,996.74
2019-03-06T11:35:26.121Z,996.69
2019-03-06T11:36:26.129Z,996.67
2019-03-06T11:37:26.097Z,996.60
2019-03-06T11:38:26.089Z,996.56
2019-03-06T11:39:26.075Z,996.58
2019-03-06T11:40:26.100Z,996.61
2019-03-06T11:41:26.088Z,996.56
2019-03-06T11:42:26.047Z,996.47
2019-03-06T11:43:26.034Z,996.53
2019-03-06T11:44:26.023Z,996.49
2019-03-06T11:45:26.022Z,996.37
2019-03-06T11:46:26.023Z,996.40
2019-03-06T11:47:25.991Z,996.36
2019-03-06T11:48:25.983Z,996.35
2019-03-06T11:49:25.968Z,996.33
2019-03-06T11:50:25.978Z,996.25
2019-03-06T11:51:25.968Z,996.27
2019-03-06T11:52:25.941Z,996.34
2019-03-06T11:53:25.934Z,996.29
2019-03-06T11:54:25.919Z,996.20
2019-03-06T11:55:25.906Z,996.18
2019-03-06T11:56:25.937Z,996.16
2019-03-06T11:57:25.897Z,996.11
2019-03-06T11:58:25.873Z,996.19
2019-03-06T11:59:25.864Z,996.07
2019-03-06T12:00:25.852Z,996.10
2019-03-06T12:01:25.863Z,996.10
2019-03-06T12:02:25.831Z,996.18
2019-03-06T12:03:25.821Z,996.23
2019-03-06T12:04:25.809Z,996.23
2019-03-06T12:05:25.803Z,996.19
2019-03-06T12:06:25.827Z,996.12
2019-03-06T12:07:25.777Z,996.12
2019-03-06T12:08:25.768Z,996.09
2019-03-06T12:09:25.784Z,996.02
2019-03-06T12:10:25.747Z,995.96
2019-03-06T12:11:25.764Z,996.04
2019-03-06T12:12:25.737Z,996.00
2019-03-06T12:13:25.716Z,996.00
2019-03-06T12:14:25.709Z,995.97